sensor_id;sensor_type;location;lat;lon;timestamp;P1;durP1;ratioP1;P2;durP2;ratioP2
43319;SDS011;28914;48.722;9.332;2024-01-07T00:01:25;10.93;;;9.93;;
43319;SDS011;28914;48.722;9.332;2024-01-07T00:06:46;14.37;;;12.00;;
43319;SDS011;28914;48.722;9.332;2024-01-07T00:12:05;12.53;;;11.23;;
43319;SDS011;28914;48.722;9.332;2024-01-07T00:17:25;13.50;;;12.20;;
43319;SDS011;28914;48.722;9.332;2024-01-07T00:22:44;14.00;;;12.57;;
43319;SDS011;28914;48.722;9.332;2024-01-07T00:28:03;13.47;;;11.53;;
43319;SDS011;28914;48.722;9.332;2024-01-07T00:33:23;13.77;;;12.37;;
43319;SDS011;28914;48.722;9.332;2024-01-07T00:38:42;12.93;;;11.73;;
43319;SDS011;28914;48.722;9.332;2024-01-07T00:44:02;13.30;;;11.90;;
43319;SDS011;28914;48.722;9.332;2024-01-07T00:49:21;12.90;;;11.23;;
43319;SDS011;28914;48.722;9.332;2024-01-07T00:54:40;12.97;;;11.60;;
43319;SDS011;28914;48.722;9.332;2024-01-07T01:00:00;12.67;;;11.43;;
43319;SDS011;28914;48.722;9.332;2024-01-07T01:05:23;11.53;;;10.43;;
43319;SDS011;28914;48.722;9.332;2024-01-07T01:10:42;11.90;;;10.70;;
43319;SDS011;28914;48.722;9.332;2024-01-07T01:16:01;14.10;;;12.20;;
43319;SDS011;28914;48.722;9.332;2024-01-07T01:21:20;11.57;;;10.37;;
43319;SDS011;28914;48.722;9.332;2024-01-07T01:26:40;12.00;;;10.80;;
43319;SDS011;28914;48.722;9.332;2024-01-07T01:31:59;15.40;;;12.13;;
43319;SDS011;28914;48.722;9.332;2024-01-07T01:37:18;14.43;;;12.80;;
43319;SDS011;28914;48.722;9.332;2024-01-07T01:42:37;12.80;;;11.37;;
43319;SDS011;28914;48.722;9.332;2024-01-07T01:47:56;11.87;;;10.67;;
43319;SDS011;28914;48.722;9.332;2024-01-07T01:53:16;12.27;;;11.07;;
43319;SDS011;28914;48.722;9.332;2024-01-07T01:58:35;11.90;;;10.67;;
43319;SDS011;28914;48.722;9.332;2024-01-07T02:03:55;11.70;;;10.47;;
43319;SDS011;28914;48.722;9.332;2024-01-07T02:09:14;10.90;;;9.47;;
43319;SDS011;28914;48.722;9.332;2024-01-07T02:14:34;11.37;;;9.93;;
43319;SDS011;28914;48.722;9.332;2024-01-07T02:19:53;10.80;;;9.70;;
43319;SDS011;28914;48.722;9.332;2024-01-07T02:25:12;9.37;;;8.47;;
43319;SDS011;28914;48.722;9.332;2024-01-07T02:30:31;12.00;;;10.80;;
43319;SDS011;28914;48.722;9.332;2024-01-07T02:35:51;11.80;;;9.57;;
43319;SDS011;28914;48.722;9.332;2024-01-07T02:41:10;9.43;;;8.30;;
43319;SDS011;28914;48.722;9.332;2024-01-07T02:46:31;11.10;;;9.63;;
43319;SDS011;28914;48.722;9.332;2024-01-07T02:51:50;10.93;;;9.73;;
43319;SDS011;28914;48.722;9.332;2024-01-07T02:57:09;9.13;;;8.10;;
43319;SDS011;28914;48.722;9.332;2024-01-07T03:02:29;9.90;;;8.90;;
43319;SDS011;28914;48.722;9.332;2024-01-07T03:07:48;9.87;;;8.87;;
43319;SDS011;28914;48.722;9.332;2024-01-07T03:13:07;8.50;;;7.60;;
43319;SDS011;28914;48.722;9.332;2024-01-07T03:18:26;9.43;;;8.40;;
43319;SDS011;28914;48.722;9.332;2024-01-07T03:23:47;9.73;;;8.83;;
43319;SDS011;28914;48.722;9.332;2024-01-07T03:29:07;9.60;;;8.33;;
43319;SDS011;28914;48.722;9.332;2024-01-07T03:34:26;11.27;;;9.10;;
43319;SDS011;28914;48.722;9.332;2024-01-07T03:39:46;9.77;;;8.80;;
43319;SDS011;28914;48.722;9.332;2024-01-07T03:45:05;9.60;;;8.60;;
43319;SDS011;28914;48.722;9.332;2024-01-07T03:50:25;8.33;;;7.57;;
43319;SDS011;28914;48.722;9.332;2024-01-07T03:55:44;9.20;;;8.30;;
43319;SDS011;28914;48.722;9.332;2024-01-07T04:01:04;8.23;;;7.53;;
43319;SDS011;28914;48.722;9.332;2024-01-07T04:06:23;9.73;;;8.73;;
43319;SDS011;28914;48.722;9.332;2024-01-07T04:11:43;9.10;;;8.20;;
43319;SDS011;28914;48.722;9.332;2024-01-07T04:17:02;8.97;;;8.10;;
43319;SDS011;28914;48.722;9.332;2024-01-07T04:22:21;10.03;;;9.07;;
43319;SDS011;28914;48.722;9.332;2024-01-07T04:27:41;9.30;;;8.43;;
43319;SDS011;28914;48.722;9.332;2024-01-07T04:33:00;10.37;;;9.53;;
43319;SDS011;28914;48.722;9.332;2024-01-07T04:38:20;8.80;;;7.90;;
43319;SDS011;28914;48.722;9.332;2024-01-07T04:43:39;8.33;;;7.50;;
43319;SDS011;28914;48.722;9.332;2024-01-07T04:48:59;10.00;;;7.77;;
43319;SDS011;28914;48.722;9.332;2024-01-07T04:54:18;8.13;;;7.37;;
43319;SDS011;28914;48.722;9.332;2024-01-07T04:59:37;7.90;;;7.10;;
43319;SDS011;28914;48.722;9.332;2024-01-07T05:04:56;10.23;;;8.40;;
43319;SDS011;28914;48.722;9.332;2024-01-07T05:10:15;9.97;;;9.07;;
43319;SDS011;28914;48.722;9.332;2024-01-07T05:15:35;9.40;;;8.60;;
43319;SDS011;28914;48.722;9.332;2024-01-07T05:20:54;9.30;;;8.40;;
43319;SDS011;28914;48.722;9.332;2024-01-07T05:26:13;8.43;;;7.73;;
43319;SDS011;28914;48.722;9.332;2024-01-07T05:31:32;8.93;;;8.13;;
43319;SDS011;28914;48.722;9.332;2024-01-07T05:36:51;8.13;;;7.33;;
43319;SDS011;28914;48.722;9.332;2024-01-07T05:42:10;9.10;;;8.20;;
43319;SDS011;28914;48.722;9.332;2024-01-07T05:47:30;9.83;;;8.90;;
43319;SDS011;28914;48.722;9.332;2024-01-07T05:52:49;9.13;;;8.33;;
43319;SDS011;28914;48.722;9.332;2024-01-07T05:58:08;9.13;;;8.13;;
43319;SDS011;28914;48.722;9.332;2024-01-07T06:03:27;9.80;;;8.30;;
43319;SDS011;28914;48.722;9.332;2024-01-07T06:08:46;8.03;;;7.30;;
43319;SDS011;28914;48.722;9.332;2024-01-07T06:14:06;8.53;;;7.87;;
43319;SDS011;28914;48.722;9.332;2024-01-07T06:19:25;7.50;;;6.90;;
43319;SDS011;28914;48.722;9.332;2024-01-07T06:24:44;7.90;;;7.20;;
43319;SDS011;28914;48.722;9.332;2024-01-07T06:30:04;8.40;;;7.60;;
43319;SDS011;28914;48.722;9.332;2024-01-07T06:35:24;8.43;;;7.70;;
43319;SDS011;28914;48.722;9.332;2024-01-07T06:40:44;15.70;;;14.37;;
43319;SDS011;28914;48.722;9.332;2024-01-07T06:46:03;31.30;;;28.00;;
43319;SDS011;28914;48.722;9.332;2024-01-07T06:51:23;32.97;;;29.47;;
43319;SDS011;28914;48.722;9.332;2024-01-07T06:56:42;37.20;;;33.20;;
43319;SDS011;28914;48.722;9.332;2024-01-07T07:02:01;22.73;;;20.37;;
43319;SDS011;28914;48.722;9.332;2024-01-07T07:07:20;19.57;;;17.63;;
43319;SDS011;28914;48.722;9.332;2024-01-07T07:12:40;20.67;;;19.00;;
43319;SDS011;28914;48.722;9.332;2024-01-07T07:17:59;22.30;;;20.60;;
43319;SDS011;28914;48.722;9.332;2024-01-07T07:23:18;18.50;;;16.90;;
43319;SDS011;28914;48.722;9.332;2024-01-07T07:28:37;17.00;;;15.40;;
43319;SDS011;28914;48.722;9.332;2024-01-07T07:33:56;15.97;;;14.50;;
43319;SDS011;28914;48.722;9.332;2024-01-07T07:39:16;15.37;;;13.87;;
43319;SDS011;28914;48.722;9.332;2024-01-07T07:44:35;12.97;;;11.77;;
43319;SDS011;28914;48.722;9.332;2024-01-07T07:49:54;11.83;;;10.73;;
43319;SDS011;28914;48.722;9.332;2024-01-07T07:55:13;11.63;;;10.63;;
43319;SDS011;28914;48.722;9.332;2024-01-07T08:00:33;11.73;;;10.63;;
43319;SDS011;28914;48.722;9.332;2024-01-07T08:05:52;11.43;;;10.37;;
43319;SDS011;28914;48.722;9.332;2024-01-07T08:11:11;7.80;;;7.10;;
43319;SDS011;28914;48.722;9.332;2024-01-07T08:16:30;7.40;;;6.73;;
43319;SDS011;28914;48.722;9.332;2024-01-07T08:21:50;7.30;;;6.20;;
43319;SDS011;28914;48.722;9.332;2024-01-07T08:27:09;7.80;;;7.10;;
43319;SDS011;28914;48.722;9.332;2024-01-07T08:32:29;6.50;;;5.90;;
43319;SDS011;28914;48.722;9.332;2024-01-07T08:37:48;5.80;;;5.20;;
43319;SDS011;28914;48.722;9.332;2024-01-07T08:43:08;6.40;;;5.80;;
43319;SDS011;28914;48.722;9.332;2024-01-07T08:48:27;5.90;;;5.23;;
43319;SDS011;28914;48.722;9.332;2024-01-07T08:53:46;7.23;;;6.53;;
43319;SDS011;28914;48.722;9.332;2024-01-07T08:59:05;8.23;;;7.40;;
43319;SDS011;28914;48.722;9.332;2024-01-07T09:04:24;6.77;;;6.07;;
43319;SDS011;28914;48.722;9.332;2024-01-07T09:09:44;5.93;;;5.33;;
43319;SDS011;28914;48.722;9.332;2024-01-07T09:15:03;6.50;;;5.90;;
43319;SDS011;28914;48.722;9.332;2024-01-07T09:20:26;7.93;;;7.10;;
43319;SDS011;28914;48.722;9.332;2024-01-07T09:25:45;14.30;;;11.90;;
43319;SDS011;28914;48.722;9.332;2024-01-07T09:31:04;15.27;;;13.20;;
43319;SDS011;28914;48.722;9.332;2024-01-07T09:36:23;10.90;;;9.60;;
43319;SDS011;28914;48.722;9.332;2024-01-07T09:41:43;7.20;;;6.10;;
43319;SDS011;28914;48.722;9.332;2024-01-07T09:47:02;6.73;;;5.60;;
43319;SDS011;28914;48.722;9.332;2024-01-07T09:52:22;5.10;;;4.60;;
43319;SDS011;28914;48.722;9.332;2024-01-07T09:57:43;5.47;;;4.97;;
43319;SDS011;28914;48.722;9.332;2024-01-07T10:03:03;7.70;;;6.20;;
43319;SDS011;28914;48.722;9.332;2024-01-07T10:08:22;5.40;;;4.90;;
43319;SDS011;28914;48.722;9.332;2024-01-07T10:13:41;7.33;;;6.63;;
43319;SDS011;28914;48.722;9.332;2024-01-07T10:19:06;7.00;;;6.30;;
43319;SDS011;28914;48.722;9.332;2024-01-07T10:24:26;7.17;;;6.47;;
43319;SDS011;28914;48.722;9.332;2024-01-07T10:29:50;6.23;;;5.53;;
43319;SDS011;28914;48.722;9.332;2024-01-07T10:35:11;7.20;;;6.50;;
43319;SDS011;28914;48.722;9.332;2024-01-07T10:40:33;7.43;;;6.53;;
43319;SDS011;28914;48.722;9.332;2024-01-07T10:45:52;7.80;;;6.93;;
43319;SDS011;28914;48.722;9.332;2024-01-07T10:51:13;8.07;;;7.13;;
43319;SDS011;28914;48.722;9.332;2024-01-07T10:56:36;7.07;;;6.37;;
43319;SDS011;28914;48.722;9.332;2024-01-07T11:02:00;7.43;;;6.73;;
43319;SDS011;28914;48.722;9.332;2024-01-07T11:07:35;8.07;;;7.27;;
43319;SDS011;28914;48.722;9.332;2024-01-07T11:13:03;7.30;;;6.60;;
43319;SDS011;28914;48.722;9.332;2024-01-07T11:18:22;6.83;;;6.20;;
43319;SDS011;28914;48.722;9.332;2024-01-07T11:23:44;10.73;;;9.63;;
43319;SDS011;28914;48.722;9.332;2024-01-07T11:29:04;7.30;;;6.60;;
43319;SDS011;28914;48.722;9.332;2024-01-07T11:34:43;7.17;;;6.47;;
43319;SDS011;28914;48.722;9.332;2024-01-07T11:40:05;7.53;;;6.70;;
43319;SDS011;28914;48.722;9.332;2024-01-07T11:45:25;8.03;;;7.20;;
43319;SDS011;28914;48.722;9.332;2024-01-07T11:50:45;7.17;;;6.47;;
43319;SDS011;28914;48.722;9.332;2024-01-07T11:56:04;6.43;;;5.83;;
43319;SDS011;28914;48.722;9.332;2024-01-07T12:01:23;6.87;;;6.17;;
43319;SDS011;28914;48.722;9.332;2024-01-07T12:06:45;6.47;;;5.87;;
43319;SDS011;28914;48.722;9.332;2024-01-07T12:12:04;9.00;;;8.20;;
43319;SDS011;28914;48.722;9.332;2024-01-07T12:17:23;6.63;;;6.03;;
43319;SDS011;28914;48.722;9.332;2024-01-07T12:22:43;6.10;;;5.57;;
43319;SDS011;28914;48.722;9.332;2024-01-07T12:28:03;6.83;;;5.77;;
43319;SDS011;28914;48.722;9.332;2024-01-07T12:33:25;6.83;;;6.23;;
43319;SDS011;28914;48.722;9.332;2024-01-07T12:38:44;7.30;;;6.60;;
43319;SDS011;28914;48.722;9.332;2024-01-07T12:44:04;7.00;;;6.40;;
43319;SDS011;28914;48.722;9.332;2024-01-07T12:49:23;7.00;;;6.40;;
43319;SDS011;28914;48.722;9.332;2024-01-07T12:54:42;7.17;;;6.47;;
43319;SDS011;28914;48.722;9.332;2024-01-07T13:00:03;7.17;;;6.47;;
43319;SDS011;28914;48.722;9.332;2024-01-07T13:05:24;6.20;;;5.60;;
43319;SDS011;28914;48.722;9.332;2024-01-07T13:10:44;7.20;;;6.50;;
43319;SDS011;28914;48.722;9.332;2024-01-07T13:16:04;6.13;;;5.63;;
43319;SDS011;28914;48.722;9.332;2024-01-07T13:21:24;6.73;;;6.13;;
43319;SDS011;28914;48.722;9.332;2024-01-07T13:26:43;7.50;;;6.57;;
43319;SDS011;28914;48.722;9.332;2024-01-07T13:32:02;7.40;;;6.60;;
43319;SDS011;28914;48.722;9.332;2024-01-07T13:37:22;7.57;;;6.87;;
43319;SDS011;28914;48.722;9.332;2024-01-07T13:42:41;8.53;;;7.73;;
43319;SDS011;28914;48.722;9.332;2024-01-07T13:48:00;9.67;;;8.73;;
43319;SDS011;28914;48.722;9.332;2024-01-07T13:53:19;8.90;;;8.10;;
43319;SDS011;28914;48.722;9.332;2024-01-07T13:58:39;11.07;;;9.97;;
43319;SDS011;28914;48.722;9.332;2024-01-07T14:03:58;10.23;;;9.23;;
43319;SDS011;28914;48.722;9.332;2024-01-07T14:09:17;10.53;;;9.53;;
43319;SDS011;28914;48.722;9.332;2024-01-07T14:14:36;11.50;;;10.40;;
43319;SDS011;28914;48.722;9.332;2024-01-07T14:19:55;10.67;;;9.57;;
43319;SDS011;28914;48.722;9.332;2024-01-07T14:25:15;11.90;;;10.70;;
43319;SDS011;28914;48.722;9.332;2024-01-07T14:30:34;11.50;;;10.40;;
43319;SDS011;28914;48.722;9.332;2024-01-07T14:35:53;11.57;;;10.37;;
43319;SDS011;28914;48.722;9.332;2024-01-07T14:41:15;11.20;;;10.10;;
43319;SDS011;28914;48.722;9.332;2024-01-07T14:46:34;12.13;;;10.83;;
43319;SDS011;28914;48.722;9.332;2024-01-07T14:51:53;11.87;;;10.67;;
43319;SDS011;28914;48.722;9.332;2024-01-07T14:57:12;11.50;;;10.40;;
43319;SDS011;28914;48.722;9.332;2024-01-07T15:02:32;11.30;;;10.10;;
43319;SDS011;28914;48.722;9.332;2024-01-07T15:07:52;10.67;;;9.67;;
43319;SDS011;28914;48.722;9.332;2024-01-07T15:13:11;9.17;;;8.27;;
43319;SDS011;28914;48.722;9.332;2024-01-07T15:18:30;9.97;;;8.97;;
43319;SDS011;28914;48.722;9.332;2024-01-07T15:23:49;8.83;;;7.93;;
43319;SDS011;28914;48.722;9.332;2024-01-07T15:29:09;10.83;;;9.73;;
43319;SDS011;28914;48.722;9.332;2024-01-07T15:34:28;10.00;;;9.00;;
43319;SDS011;28914;48.722;9.332;2024-01-07T15:39:47;8.30;;;7.50;;
43319;SDS011;28914;48.722;9.332;2024-01-07T15:45:06;9.97;;;9.07;;
43319;SDS011;28914;48.722;9.332;2024-01-07T15:50:27;9.37;;;8.37;;
43319;SDS011;28914;48.722;9.332;2024-01-07T15:55:47;10.13;;;8.80;;
43319;SDS011;28914;48.722;9.332;2024-01-07T16:01:06;9.43;;;8.60;;
43319;SDS011;28914;48.722;9.332;2024-01-07T16:06:25;8.80;;;8.00;;
43319;SDS011;28914;48.722;9.332;2024-01-07T16:11:45;9.00;;;8.10;;
43319;SDS011;28914;48.722;9.332;2024-01-07T16:17:04;8.70;;;7.80;;
43319;SDS011;28914;48.722;9.332;2024-01-07T16:22:25;10.93;;;9.83;;
43319;SDS011;28914;48.722;9.332;2024-01-07T16:27:44;8.90;;;8.00;;
43319;SDS011;28914;48.722;9.332;2024-01-07T16:33:03;8.67;;;7.87;;
43319;SDS011;28914;48.722;9.332;2024-01-07T16:38:24;9.63;;;8.67;;
43319;SDS011;28914;48.722;9.332;2024-01-07T16:43:43;7.97;;;7.27;;
43319;SDS011;28914;48.722;9.332;2024-01-07T16:49:02;8.17;;;7.43;;
43319;SDS011;28914;48.722;9.332;2024-01-07T16:54:22;8.90;;;8.10;;
43319;SDS011;28914;48.722;9.332;2024-01-07T16:59:41;7.57;;;6.87;;
43319;SDS011;28914;48.722;9.332;2024-01-07T17:05:00;7.53;;;6.33;;
43319;SDS011;28914;48.722;9.332;2024-01-07T17:10:19;7.23;;;6.40;;
43319;SDS011;28914;48.722;9.332;2024-01-07T17:15:40;7.60;;;6.63;;
43319;SDS011;28914;48.722;9.332;2024-01-07T17:21:00;5.67;;;5.17;;
43319;SDS011;28914;48.722;9.332;2024-01-07T17:26:20;7.30;;;6.60;;
43319;SDS011;28914;48.722;9.332;2024-01-07T17:31:39;7.63;;;6.93;;
43319;SDS011;28914;48.722;9.332;2024-01-07T17:36:58;8.70;;;7.90;;
43319;SDS011;28914;48.722;9.332;2024-01-07T17:42:18;7.20;;;6.17;;
43319;SDS011;28914;48.722;9.332;2024-01-07T17:47:37;6.77;;;6.07;;
43319;SDS011;28914;48.722;9.332;2024-01-07T17:52:56;7.50;;;6.80;;
43319;SDS011;28914;48.722;9.332;2024-01-07T17:58:16;7.57;;;6.73;;
43319;SDS011;28914;48.722;9.332;2024-01-07T18:03:36;6.40;;;5.80;;
43319;SDS011;28914;48.722;9.332;2024-01-07T18:08:55;6.97;;;6.27;;
43319;SDS011;28914;48.722;9.332;2024-01-07T18:14:14;6.70;;;6.10;;
43319;SDS011;28914;48.722;9.332;2024-01-07T18:19:35;7.57;;;6.87;;
43319;SDS011;28914;48.722;9.332;2024-01-07T18:24:54;8.10;;;7.30;;
43319;SDS011;28914;48.722;9.332;2024-01-07T18:30:13;8.07;;;7.27;;
43319;SDS011;28914;48.722;9.332;2024-01-07T18:35:33;9.00;;;8.10;;
43319;SDS011;28914;48.722;9.332;2024-01-07T18:40:54;10.20;;;9.17;;
43319;SDS011;28914;48.722;9.332;2024-01-07T18:46:13;7.60;;;6.67;;
43319;SDS011;28914;48.722;9.332;2024-01-07T18:51:32;7.57;;;6.77;;
43319;SDS011;28914;48.722;9.332;2024-01-07T18:56:51;7.33;;;6.63;;
43319;SDS011;28914;48.722;9.332;2024-01-07T19:02:10;7.57;;;6.93;;
43319;SDS011;28914;48.722;9.332;2024-01-07T19:07:29;7.77;;;7.07;;
43319;SDS011;28914;48.722;9.332;2024-01-07T19:12:49;6.60;;;6.00;;
43319;SDS011;28914;48.722;9.332;2024-01-07T19:18:08;6.83;;;6.17;;
43319;SDS011;28914;48.722;9.332;2024-01-07T19:23:28;6.50;;;5.90;;
43319;SDS011;28914;48.722;9.332;2024-01-07T19:28:47;7.10;;;6.40;;
43319;SDS011;28914;48.722;9.332;2024-01-07T19:34:06;6.27;;;5.67;;
43319;SDS011;28914;48.722;9.332;2024-01-07T19:39:25;6.57;;;5.97;;
43319;SDS011;28914;48.722;9.332;2024-01-07T19:44:45;6.50;;;5.90;;
43319;SDS011;28914;48.722;9.332;2024-01-07T19:50:04;7.27;;;6.57;;
43319;SDS011;28914;48.722;9.332;2024-01-07T19:55:24;6.90;;;6.20;;
43319;SDS011;28914;48.722;9.332;2024-01-07T20:00:43;7.37;;;6.77;;
43319;SDS011;28914;48.722;9.332;2024-01-07T20:06:03;6.77;;;6.27;;
43319;SDS011;28914;48.722;9.332;2024-01-07T20:11:23;8.03;;;7.33;;
43319;SDS011;28914;48.722;9.332;2024-01-07T20:16:42;6.30;;;5.77;;
43319;SDS011;28914;48.722;9.332;2024-01-07T20:22:02;7.23;;;6.63;;
43319;SDS011;28914;48.722;9.332;2024-01-07T20:27:21;7.70;;;7.00;;
43319;SDS011;28914;48.722;9.332;2024-01-07T20:32:40;7.73;;;7.10;;
43319;SDS011;28914;48.722;9.332;2024-01-07T20:38:00;8.00;;;7.27;;
43319;SDS011;28914;48.722;9.332;2024-01-07T20:43:19;7.27;;;6.67;;
43319;SDS011;28914;48.722;9.332;2024-01-07T20:48:38;7.07;;;6.37;;
43319;SDS011;28914;48.722;9.332;2024-01-07T20:53:58;7.57;;;6.90;;
43319;SDS011;28914;48.722;9.332;2024-01-07T20:59:17;6.00;;;5.50;;
43319;SDS011;28914;48.722;9.332;2024-01-07T21:04:36;6.33;;;5.83;;
43319;SDS011;28914;48.722;9.332;2024-01-07T21:09:55;6.00;;;5.50;;
43319;SDS011;28914;48.722;9.332;2024-01-07T21:15:15;5.50;;;5.10;;
43319;SDS011;28914;48.722;9.332;2024-01-07T21:20:34;6.17;;;5.70;;
43319;SDS011;28914;48.722;9.332;2024-01-07T21:25:54;6.53;;;6.00;;
43319;SDS011;28914;48.722;9.332;2024-01-07T21:31:22;5.80;;;5.40;;
43319;SDS011;28914;48.722;9.332;2024-01-07T21:36:41;5.23;;;4.50;;
43319;SDS011;28914;48.722;9.332;2024-01-07T21:42:00;5.50;;;5.03;;
43319;SDS011;28914;48.722;9.332;2024-01-07T21:47:19;4.97;;;4.57;;
43319;SDS011;28914;48.722;9.332;2024-01-07T21:52:39;5.50;;;5.00;;
43319;SDS011;28914;48.722;9.332;2024-01-07T21:57:58;5.03;;;4.70;;
43319;SDS011;28914;48.722;9.332;2024-01-07T22:03:18;4.80;;;4.40;;
43319;SDS011;28914;48.722;9.332;2024-01-07T22:08:37;4.63;;;4.23;;
43319;SDS011;28914;48.722;9.332;2024-01-07T22:13:57;4.90;;;4.50;;
43319;SDS011;28914;48.722;9.332;2024-01-07T22:19:16;4.73;;;4.33;;
43319;SDS011;28914;48.722;9.332;2024-01-07T22:24:36;4.90;;;4.50;;
43319;SDS011;28914;48.722;9.332;2024-01-07T22:29:55;4.70;;;4.30;;
43319;SDS011;28914;48.722;9.332;2024-01-07T22:35:14;5.17;;;4.77;;
43319;SDS011;28914;48.722;9.332;2024-01-07T22:40:33;5.07;;;4.60;;
43319;SDS011;28914;48.722;9.332;2024-01-07T22:45:53;5.33;;;4.83;;
43319;SDS011;28914;48.722;9.332;2024-01-07T22:51:12;4.73;;;4.33;;
43319;SDS011;28914;48.722;9.332;2024-01-07T22:56:32;4.80;;;4.40;;
43319;SDS011;28914;48.722;9.332;2024-01-07T23:01:51;5.67;;;5.17;;
43319;SDS011;28914;48.722;9.332;2024-01-07T23:07:10;6.03;;;5.43;;
43319;SDS011;28914;48.722;9.332;2024-01-07T23:12:29;5.40;;;5.00;;
43319;SDS011;28914;48.722;9.332;2024-01-07T23:17:48;4.17;;;3.80;;
43319;SDS011;28914;48.722;9.332;2024-01-07T23:23:10;4.73;;;4.13;;
43319;SDS011;28914;48.722;9.332;2024-01-07T23:28:30;4.60;;;4.20;;
43319;SDS011;28914;48.722;9.332;2024-01-07T23:33:49;4.17;;;3.80;;
43319;SDS011;28914;48.722;9.332;2024-01-07T23:39:09;3.83;;;3.53;;
43319;SDS011;28914;48.722;9.332;2024-01-07T23:44:30;4.23;;;3.83;;
43319;SDS011;28914;48.722;9.332;2024-01-07T23:49:49;3.37;;;3.07;;
43319;SDS011;28914;48.722;9.332;2024-01-07T23:55:08;3.77;;;3.17;;
